CheckWX is a tool to help pilots better visualize weather data.  It is not intended as a substitute for an official pre-flight weather briefing.

20:40:34 UTC

KCRQ METAR
Mc Clellan-Palomar Airport
Carlsbad, California, USA
Current

22 mins ago

KCRQ 202019Z 27006G15KT 2 1/2SM +RA BKN028 BKN035 OVC060 12/09 A2962 RMK AO2 RAB14 P0002 T01220089
Observed
Nov-20 @ 20:19 UTC
Wind
  • 270° at 6 KTS
  • Gusting to 15 KTS
Visibility
2 1/2 SM
Flight Rules
IFR
Conditions
Heavy Rain
Cloud Levels
  • Broken at 2,800' AGL
  • Broken at 3,500' AGL
  • Overcast at 6,000' AGL
Temperature
12°C / 54°F
Dewpoint
C / 48°F
Humidity
82%
Altimeter
29.62" Hg
Pressure
1003.02 hPa
Current Rain
0.02"
Previous

48 mins ago

KCRQ 201953Z 22014G23KT 10SM FEW029 BKN060 OVC085 14/08 A2961 RMK AO2 PK WND 22031/1917 LTG DSNT N RAB12E31B40E51 SLP026 P0007 T01440078
Observed
Nov-20 @ 19:53 UTC
Wind
  • 220° at 14 KTS
  • Gusting to 23 KTS
Visibility
10 SM
Flight Rules
VFR
Cloud Levels
  • Few at 2,900' AGL
  • Broken at 6,000' AGL
  • Overcast at 8,500' AGL
Temperature
14°C / 57°F
Dewpoint
C / 46°F
Humidity
67%
Altimeter
29.61" Hg
Pressure
1002.72 hPa
Current Rain
0.07"
Previous

58 mins ago

KCRQ 201943Z 22013G22KT 8SM -RA FEW024 BKN035 OVC060 14/09 A2962 RMK AO2 PK WND 22031/1917 RAB12E31B40 P0007 T01390094
Observed
Nov-20 @ 19:43 UTC
Wind
  • 220° at 13 KTS
  • Gusting to 22 KTS
Visibility
8 SM
Flight Rules
VFR
Conditions
Light Rain
Cloud Levels
  • Few at 2,400' AGL
  • Broken at 3,500' AGL
  • Overcast at 6,000' AGL
Temperature
14°C / 57°F
Dewpoint
C / 48°F
Humidity
72%
Altimeter
29.62" Hg
Pressure
1003.02 hPa
Current Rain
0.07"